Time;durP1;ratioP1;P1;durP2;ratioP2;P2;SDS_P1;SDS_P2;PMS_P1;PMS_P2;Temp;Humidity;BMP_temperature;BMP_pressure;BME280_temperature;BME280_humidity;BME280_pressure;Samples;Min_cycle;Max_cycle;Signal;HPM_P1;HPM_P2
2021/08/11 00:02:03;;;;;;;9.82;8.10;;;20.80;99.90;;;;;;4378344;32;20077;-75
2021/08/11 00:04:29;;;;;;;10.75;7.57;;;20.70;99.90;;;;;;4390227;32;20092;-75
2021/08/11 00:06:55;;;;;;;9.40;7.18;;;20.70;99.90;;;;;;4377740;32;20069;-75
2021/08/11 00:09:22;;;;;;;9.27;7.28;;;20.80;99.90;;;;;;4390486;32;20081;-74
2021/08/11 00:11:48;;;;;;;12.10;7.45;;;20.60;99.90;;;;;;4377936;32;20534;-75
2021/08/11 00:14:14;;;;;;;12.93;7.20;;;20.70;99.90;;;;;;4390606;32;20081;-75
2021/08/11 00:16:40;;;;;;;11.57;7.00;;;20.70;99.90;;;;;;4390214;32;20089;-75
2021/08/11 00:19:06;;;;;;;9.98;7.12;;;20.50;99.90;;;;;;4377493;32;20076;-75
2021/08/11 00:21:32;;;;;;;10.88;7.07;;;20.60;99.90;;;;;;4377781;32;20480;-75
2021/08/11 00:23:59;;;;;;;11.43;6.90;;;20.60;99.90;;;;;;4390015;32;20073;-75
2021/08/11 00:26:25;;;;;;;12.90;7.10;;;20.60;99.90;;;;;;4377460;32;20061;-75
2021/08/11 00:28:51;;;;;;;11.15;6.62;;;20.70;99.90;;;;;;4377372;32;20097;-75
2021/08/11 00:31:17;;;;;;;8.50;6.43;;;20.70;99.90;;;;;;4389785;32;20531;-75
2021/08/11 00:33:43;;;;;;;8.50;6.80;;;20.70;99.90;;;;;;4389992;32;20089;-75
2021/08/11 00:36:09;;;;;;;8.38;6.75;;;20.70;99.90;;;;;;4364478;32;20486;-74
2021/08/11 00:38:36;;;;;;;9.10;7.07;;;20.60;99.90;;;;;;4377487;32;20526;-75
2021/08/11 00:41:02;;;;;;;10.18;7.32;;;20.60;99.90;;;;;;4376788;32;20524;-75
2021/08/11 00:43:28;;;;;;;11.82;7.47;;;20.60;99.90;;;;;;4390598;32;20081;-75
2021/08/11 00:45:54;;;;;;;9.35;6.65;;;20.60;99.90;;;;;;4377294;32;20527;-76
2021/08/11 00:48:25;;;;;;;11.07;7.65;;;20.60;99.90;;;;;;4377302;32;20066;-74
2021/08/11 00:50:51;;;;;;;9.10;7.32;;;20.60;99.90;;;;;;4365473;32;20093;-75
2021/08/11 00:53:17;;;;;;;10.13;6.62;;;20.70;99.90;;;;;;4369798;32;20589;-75
2021/08/11 00:55:44;;;;;;;9.30;6.60;;;20.80;99.90;;;;;;4355059;32;20451;-76
2021/08/11 00:58:11;;;;;;;9.07;6.30;;;20.80;99.90;;;;;;4367112;32;20460;-76
2021/08/11 01:00:45;;;;;;;8.93;6.80;;;20.80;99.90;;;;;;4366975;32;20516;-76
2021/08/11 01:03:18;;;;;;;10.82;7.15;;;20.80;99.90;;;;;;4355047;32;20161;-76
2021/08/11 01:05:44;;;;;;;9.80;6.68;;;20.80;99.90;;;;;;4380225;32;20158;-77
2021/08/11 01:08:11;;;;;;;9.90;6.70;;;20.80;99.90;;;;;;4367301;32;20173;-75
2021/08/11 01:10:38;;;;;;;11.68;7.20;;;20.80;99.90;;;;;;4367655;32;20509;-76
2021/08/11 01:13:04;;;;;;;11.02;7.03;;;20.70;99.90;;;;;;4367002;32;20066;-76
2021/08/11 01:15:31;;;;;;;10.10;6.78;;;20.70;99.90;;;;;;4379442;32;20081;-75
2021/08/11 01:17:57;;;;;;;11.38;7.30;;;20.80;99.90;;;;;;4379558;32;20082;-76
2021/08/11 01:20:23;;;;;;;11.10;7.93;;;20.70;99.90;;;;;;4366595;32;20166;-75
2021/08/11 01:22:57;;;;;;;12.82;8.45;;;20.60;99.90;;;;;;4379545;32;20108;-75
2021/08/11 01:25:39;;;;;;;10.60;7.95;;;20.50;99.90;;;;;;4355226;32;20096;-75
2021/08/11 01:28:22;;;;;;;9.02;7.55;;;20.40;99.90;;;;;;4366747;32;20077;-74
2021/08/11 01:31:05;;;;;;;13.45;8.02;;;20.40;99.90;;;;;;4380140;32;20508;-74
2021/08/11 01:33:53;;;;;;;11.98;7.80;;;20.40;99.90;;;;;;4379988;32;20086;-75
2021/08/11 01:36:37;;;;;;;12.45;7.68;;;20.40;99.90;;;;;;4380847;32;20077;-75
2021/08/11 01:39:33;;;;;;;11.30;7.65;;;20.40;99.90;;;;;;4366628;32;20100;-75
2021/08/11 01:42:12;;;;;;;12.70;8.50;;;20.40;99.90;;;;;;4378964;32;20095;-75
2021/08/11 01:45:13;;;;;;;12.57;8.52;;;20.50;99.90;;;;;;4354809;32;20602;-75
2021/08/11 01:47:49;;;;;;;14.05;8.15;;;20.40;99.90;;;;;;4367456;32;20081;-76
2021/08/11 01:50:17;;;;;;;10.77;8.43;;;20.50;99.90;;;;;;4387228;32;20100;-75
2021/08/11 01:52:44;;;;;;;10.52;7.68;;;20.60;99.90;;;;;;4372508;32;20085;-75
2021/08/11 01:55:11;;;;;;;11.02;7.78;;;20.70;99.90;;;;;;4366826;32;20089;-76
2021/08/11 01:57:40;;;;;;;12.73;7.85;;;20.60;99.90;;;;;;4378484;32;20112;-75
2021/08/11 02:00:07;;;;;;;11.88;8.00;;;20.70;99.90;;;;;;4366645;32;20158;-76
2021/08/11 02:02:33;;;;;;;10.43;8.05;;;20.80;99.90;;;;;;4353860;32;20526;-75
2021/08/11 02:04:59;;;;;;;12.00;8.13;;;21.10;99.90;;;;;;4365561;32;20089;-75
2021/08/11 02:07:26;;;;;;;16.87;8.35;;;21.00;99.90;;;;;;4354461;32;20104;-75
2021/08/11 02:09:52;;;;;;;14.10;8.88;;;21.00;99.90;;;;;;4366657;32;20181;-75
2021/08/11 02:12:18;;;;;;;12.55;8.85;;;20.90;99.90;;;;;;4366517;32;20147;-74
2021/08/11 02:14:44;;;;;;;11.93;8.30;;;21.00;99.90;;;;;;4353917;32;20085;-75
2021/08/11 02:17:10;;;;;;;10.38;7.47;;;21.10;99.90;;;;;;4366254;32;20507;-75
2021/08/11 02:19:37;;;;;;;12.27;8.65;;;21.30;99.90;;;;;;4366243;32;20073;-75
2021/08/11 02:22:03;;;;;;;14.82;9.07;;;21.30;99.90;;;;;;4365886;32;20078;-75
2021/08/11 02:24:29;;;;;;;17.65;9.43;;;21.40;99.90;;;;;;4378327;32;20081;-75
2021/08/11 02:27:21;;;;;;;13.23;8.60;;;21.40;99.90;;;;;;4378233;32;20069;-75
2021/08/11 02:30:13;;;;;;;14.27;9.38;;;21.50;99.90;;;;;;4355514;32;20585;-75
2021/08/11 02:33:16;;;;;;;15.95;10.20;;;21.70;99.90;;;;;;4365650;32;20074;-75
2021/08/11 02:35:50;;;;;;;13.30;9.48;;;21.60;99.90;;;;;;4377936;32;20076;-76
2021/08/11 02:38:35;;;;;;;15.32;9.77;;;21.80;99.90;;;;;;4378646;32;20065;-75
2021/08/11 02:41:11;;;;;;;12.25;8.07;;;21.90;99.90;;;;;;4365250;32;20069;-75
2021/08/11 02:44:22;;;;;;;13.55;8.55;;;22.20;99.90;;;;;;4378243;32;20156;-75
2021/08/11 02:46:48;;;;;;;11.73;8.15;;;22.10;99.90;;;;;;4367261;32;20082;-75
2021/08/11 02:49:27;;;;;;;13.85;8.98;;;22.20;99.90;;;;;;4365778;32;20099;-75
2021/08/11 02:51:54;;;;;;;15.82;8.50;;;22.30;99.90;;;;;;4377963;32;20077;-75
2021/08/11 02:54:20;;;;;;;13.13;7.55;;;22.40;99.90;;;;;;4365616;32;20074;-76
2021/08/11 02:56:47;;;;;;;12.20;7.60;;;22.30;99.90;;;;;;4378132;32;20096;-75
2021/08/11 02:59:14;;;;;;;13.65;9.02;;;22.30;99.90;;;;;;4377808;32;20242;-75
2021/08/11 03:01:41;;;;;;;19.02;10.07;;;22.30;99.90;;;;;;4353156;32;20448;-75
2021/08/11 03:04:07;;;;;;;12.75;7.82;;;22.20;99.90;;;;;;4365557;32;20498;-75
2021/08/11 03:06:34;;;;;;;9.55;6.72;;;22.50;99.90;;;;;;4365370;32;20088;-76
2021/08/11 03:09:01;;;;;;;11.00;6.70;;;22.70;99.90;;;;;;4365314;32;20108;-76
2021/08/11 03:11:28;;;;;;;10.43;6.90;;;22.80;99.90;;;;;;4365313;32;20437;-75
2021/08/11 03:13:54;;;;;;;11.12;6.68;;;22.90;99.90;;;;;;4340867;32;20452;-74
2021/08/11 03:16:21;;;;;;;14.93;6.65;;;23.00;99.90;;;;;;4352138;32;20507;-75
2021/08/11 03:18:51;;;;;;;10.55;5.70;;;23.00;99.90;;;;;;4377774;32;20084;-75
2021/08/11 03:21:17;;;;;;;11.35;6.57;;;23.10;99.90;;;;;;4352650;32;20501;-75
2021/08/11 03:23:43;;;;;;;10.07;6.78;;;23.10;99.90;;;;;;4365780;32;20089;-75
2021/08/11 03:26:09;;;;;;;10.77;7.72;;;23.20;99.90;;;;;;4365414;32;20081;-74
2021/08/11 03:28:36;;;;;;;7.97;5.70;;;23.30;99.90;;;;;;4365397;32;20089;-75
2021/08/11 03:31:02;;;;;;;8.40;5.57;;;23.30;99.90;;;;;;4364985;32;20590;-75
2021/08/11 03:33:28;;;;;;;8.15;6.07;;;23.30;99.90;;;;;;4377997;32;20086;-75
2021/08/11 03:35:54;;;;;;;10.85;7.03;;;23.40;99.90;;;;;;4365253;32;20158;-75
2021/08/11 03:38:20;;;;;;;9.27;6.43;;;23.30;99.90;;;;;;4352611;32;20072;-75
2021/08/11 03:40:47;;;;;;;13.10;7.72;;;23.50;99.90;;;;;;4377282;32;20088;-75
2021/08/11 03:43:13;;;;;;;8.13;5.85;;;23.50;99.90;;;;;;4364710;32;20077;-75
2021/08/11 03:45:39;;;;;;;10.60;6.15;;;23.50;99.90;;;;;;4364954;32;20132;-75
2021/08/11 03:48:05;;;;;;;8.07;5.78;;;23.60;99.90;;;;;;4352980;32;20082;-75
2021/08/11 03:50:32;;;;;;;7.12;5.40;;;23.70;99.90;;;;;;4352697;32;20082;-74
2021/08/11 03:52:58;;;;;;;8.82;6.28;;;23.70;99.90;;;;;;4364992;32;20073;-76
2021/08/11 03:55:31;;;;;;;10.15;6.25;;;23.70;99.90;;;;;;4377039;32;20524;-75
2021/08/11 03:57:58;;;;;;;8.18;6.60;;;23.80;99.90;;;;;;4366317;32;20074;-76
2021/08/11 04:00:25;;;;;;;9.25;5.80;;;23.80;99.90;;;;;;4377284;32;20054;-75
2021/08/11 04:02:51;;;;;;;7.97;5.65;;;23.90;99.90;;;;;;4377514;32;20082;-75
2021/08/11 04:05:17;;;;;;;10.32;6.65;;;24.00;99.90;;;;;;4352743;32;20069;-75
2021/08/11 04:07:43;;;;;;;16.60;6.57;;;24.20;99.90;;;;;;4365228;32;20097;-75
2021/08/11 04:10:11;;;;;;;9.25;6.50;;;24.20;99.90;;;;;;4377386;32;20108;-75
2021/08/11 04:12:37;;;;;;;10.82;7.55;;;24.20;99.90;;;;;;4352488;32;20097;-75
2021/08/11 04:15:04;;;;;;;11.30;6.75;;;24.20;99.90;;;;;;4364609;32;20068;-76
2021/08/11 04:17:30;;;;;;;9.05;6.87;;;24.40;99.90;;;;;;4352614;32;20239;-75
2021/08/11 04:19:57;;;;;;;10.85;6.68;;;24.40;99.90;;;;;;4364780;32;20074;-76
2021/08/11 04:22:23;;;;;;;9.40;6.57;;;24.40;99.90;;;;;;4364982;32;20085;-76
2021/08/11 04:24:49;;;;;;;11.00;6.78;;;24.60;99.90;;;;;;4377122;32;20162;-75
2021/08/11 04:27:17;;;;;;;14.57;6.85;;;24.50;99.90;;;;;;4364981;32;20158;-76
2021/08/11 04:29:43;;;;;;;11.52;6.93;;;24.70;99.90;;;;;;4381084;32;20055;-76
2021/08/11 04:32:09;;;;;;;11.48;6.85;;;24.80;99.90;;;;;;4380304;32;20069;-75
2021/08/11 04:34:36;;;;;;;9.75;6.80;;;24.80;99.90;;;;;;4380199;32;20132;-75
2021/08/11 04:37:02;;;;;;;10.07;7.82;;;24.80;99.90;;;;;;4379710;32;20153;-75
2021/08/11 04:39:28;;;;;;;12.20;8.70;;;24.80;99.90;;;;;;4379882;32;20085;-76
2021/08/11 04:41:55;;;;;;;12.18;7.87;;;25.10;99.90;;;;;;4379481;32;20063;-75
2021/08/11 04:44:21;;;;;;;10.90;7.53;;;25.10;99.90;;;;;;4394244;32;20073;-75
2021/08/11 04:46:47;;;;;;;11.60;7.12;;;25.30;99.90;;;;;;4367034;32;20070;-74
2021/08/11 04:49:13;;;;;;;10.32;6.62;;;26.90;99.90;;;;;;4367104;32;20467;-74
2021/08/11 04:51:39;;;;;;;10.52;7.22;;;28.20;91.90;;;;;;4367320;32;20081;-74
2021/08/11 04:54:06;;;;;;;13.73;7.78;;;29.30;77.20;;;;;;4379240;32;20101;-76
2021/08/11 04:56:32;;;;;;;10.90;6.85;;;29.60;69.80;;;;;;4366868;32;20072;-75
2021/08/11 04:58:58;;;;;;;8.93;6.32;;;29.20;72.00;;;;;;4367199;32;20082;-74
2021/08/11 05:01:24;;;;;;;9.32;6.50;;;29.70;64.20;;;;;;4379368;32;20428;-75
2021/08/11 05:03:50;;;;;;;10.82;6.35;;;29.30;61.70;;;;;;4367125;32;20164;-73
2021/08/11 05:06:17;;;;;;;7.97;5.85;;;29.20;61.00;;;;;;4367028;32;20524;-75
2021/08/11 05:08:43;;;;;;;9.75;6.20;;;28.90;63.10;;;;;;4367155;32;20168;-75
2021/08/11 05:11:10;;;;;;;8.93;5.80;;;29.80;59.40;;;;;;4379071;32;20514;-76
2021/08/11 05:13:36;;;;;;;11.82;6.70;;;29.60;56.60;;;;;;4367222;32;20156;-75
2021/08/11 05:16:02;;;;;;;8.10;5.95;;;28.70;61.10;;;;;;4379463;32;20433;-75
2021/08/11 05:18:29;;;;;;;10.70;7.50;;;29.20;60.60;;;;;;4366659;32;20077;-74
2021/08/11 05:20:55;;;;;;;11.77;7.25;;;29.00;57.30;;;;;;4379059;32;20078;-75
2021/08/11 05:23:21;;;;;;;11.55;6.50;;;29.30;56.60;;;;;;4379366;32;20231;-75
2021/08/11 05:25:48;;;;;;;8.32;5.80;;;28.90;54.50;;;;;;4379177;32;20533;-75
2021/08/11 05:28:14;;;;;;;11.90;5.95;;;29.20;56.60;;;;;;4379726;32;20164;-75
2021/08/11 05:30:41;;;;;;;7.30;5.70;;;29.60;54.30;;;;;;4379089;32;20154;-76
2021/08/11 05:33:07;;;;;;;8.55;5.62;;;30.20;51.30;;;;;;4366956;32;20166;-76
2021/08/11 05:35:33;;;;;;;9.38;5.43;;;30.70;48.30;;;;;;4379552;32;20461;-75
2021/08/11 05:38:00;;;;;;;9.82;5.95;;;31.20;47.30;;;;;;4366564;32;20073;-75
2021/08/11 05:40:27;;;;;;;7.90;6.07;;;31.00;44.80;;;;;;4354067;32;20183;-74
2021/08/11 05:42:53;;;;;;;11.02;5.90;;;31.30;44.40;;;;;;4363923;32;20571;-74
2021/08/11 05:45:19;;;;;;;7.78;5.62;;;30.40;44.90;;;;;;4351493;32;20093;-74
2021/08/11 05:47:46;;;;;;;9.35;5.55;;;30.50;45.30;;;;;;4339713;32;20086;-74
2021/08/11 05:50:12;;;;;;;7.15;4.75;;;30.50;46.20;;;;;;4339542;32;20542;-74
2021/08/11 05:52:38;;;;;;;10.57;6.30;;;30.60;42.60;;;;;;4339346;32;20105;-75
2021/08/11 05:55:05;;;;;;;7.78;5.00;;;29.80;47.50;;;;;;4363823;32;20117;-75
2021/08/11 05:57:38;;;;;;;8.18;5.28;;;31.00;42.50;;;;;;4351203;32;20074;-74
2021/08/11 06:00:06;;;;;;;9.10;4.82;;;31.50;41.80;;;;;;4339630;32;20152;-75
2021/08/11 06:02:34;;;;;;;8.07;5.03;;;31.40;41.10;;;;;;4339165;32;20082;-74
2021/08/11 06:05:01;;;;;;;9.43;5.32;;;31.50;41.10;;;;;;4363798;32;20140;-75
2021/08/11 06:07:27;;;;;;;9.30;5.05;;;31.70;40.80;;;;;;4351174;32;20070;-75
2021/08/11 06:09:53;;;;;;;8.40;5.45;;;31.80;39.00;;;;;;4363681;32;20071;-75
2021/08/11 06:12:19;;;;;;;10.35;5.30;;;31.70;39.90;;;;;;4377173;32;20586;-75
2021/08/11 06:14:46;;;;;;;9.43;5.85;;;30.40;42.40;;;;;;4363937;32;20218;-73
2021/08/11 06:17:12;;;;;;;8.70;5.50;;;30.60;42.90;;;;;;4363627;32;20065;-75
2021/08/11 06:19:38;;;;;;;8.77;5.47;;;31.00;42.80;;;;;;4363425;32;20516;-74
2021/08/11 06:22:05;;;;;;;9.25;4.93;;;32.40;38.40;;;;;;4362964;32;20082;-76
2021/08/11 06:24:31;;;;;;;12.05;5.65;;;31.50;39.90;;;;;;4351379;32;20085;-76
2021/08/11 06:26:58;;;;;;;7.20;4.55;;;31.50;39.30;;;;;;4350875;32;20527;-74
2021/08/11 06:29:24;;;;;;;9.95;6.45;;;31.20;40.80;;;;;;4363350;32;20167;-76
2021/08/11 06:31:51;;;;;;;9.45;5.85;;;30.20;44.00;;;;;;4350704;32;20082;-75
2021/08/11 06:34:17;;;;;;;7.05;4.20;;;29.60;44.90;;;;;;4350999;32;20089;-74
2021/08/11 06:36:44;;;;;;;8.10;5.43;;;29.00;46.90;;;;;;4351025;32;20070;-74
2021/08/11 06:39:10;;;;;;;8.75;5.25;;;29.70;46.00;;;;;;4362962;32;20093;-76
2021/08/11 06:41:36;;;;;;;10.20;5.70;;;29.70;45.20;;;;;;4375193;32;20093;-76
2021/08/11 06:44:02;;;;;;;9.27;5.15;;;28.90;47.00;;;;;;4350545;32;20098;-76
2021/08/11 06:46:29;;;;;;;10.40;5.53;;;29.80;45.30;;;;;;4363081;32;20089;-75
2021/08/11 06:48:55;;;;;;;8.90;5.12;;;29.30;46.30;;;;;;4338621;32;20088;-75
2021/08/11 06:51:24;;;;;;;12.00;6.50;;;29.70;45.90;;;;;;4362379;32;20081;-74
2021/08/11 06:53:51;;;;;;;10.73;5.53;;;29.50;46.30;;;;;;4338777;32;20489;-75
2021/08/11 06:56:17;;;;;;;10.40;5.57;;;29.60;46.70;;;;;;4338646;32;20157;-75
2021/08/11 06:58:43;;;;;;;8.02;5.32;;;29.70;46.10;;;;;;4350663;32;20190;-76
2021/08/11 07:01:09;;;;;;;9.20;5.78;;;30.00;44.50;;;;;;4337919;32;20091;-75
2021/08/11 07:03:36;;;;;;;9.23;5.60;;;29.40;44.50;;;;;;4350677;32;20085;-75
2021/08/11 07:06:02;;;;;;;13.25;4.87;;;29.90;45.00;;;;;;4363126;32;20080;-75
2021/08/11 07:08:28;;;;;;;7.75;5.50;;;29.70;45.50;;;;;;4350352;32;20101;-76
2021/08/11 07:10:54;;;;;;;11.30;5.80;;;30.00;44.60;;;;;;4350700;32;20172;-75
2021/08/11 07:13:21;;;;;;;9.95;7.57;;;30.20;44.50;;;;;;4362853;32;20062;-75
2021/08/11 07:15:47;;;;;;;8.32;5.37;;;30.50;44.60;;;;;;4350760;32;20071;-75
2021/08/11 07:18:16;;;;;;;9.38;4.97;;;30.40;42.80;;;;;;4363672;32;20104;-75
2021/08/11 07:20:43;;;;;;;7.28;5.18;;;30.60;42.60;;;;;;4340137;32;20078;-76
2021/08/11 07:23:09;;;;;;;8.13;5.12;;;30.00;43.80;;;;;;4350810;32;20081;-76
2021/08/11 07:25:35;;;;;;;8.90;6.12;;;30.20;42.40;;;;;;4338458;32;20070;-74
2021/08/11 07:28:02;;;;;;;11.48;7.30;;;29.90;44.90;;;;;;4338493;32;20074;-74
2021/08/11 07:30:28;;;;;;;8.35;4.97;;;29.10;45.60;;;;;;4350309;32;20101;-75
2021/08/11 07:32:54;;;;;;;10.10;5.70;;;29.90;44.90;;;;;;4362651;32;20102;-75
2021/08/11 07:35:21;;;;;;;9.00;6.60;;;29.50;45.70;;;;;;4350027;32;20158;-75
2021/08/11 07:37:54;;;;;;;7.72;4.78;;;29.30;46.20;;;;;;4350973;32;20086;-75
2021/08/11 07:40:23;;;;;;;10.05;5.60;;;29.10;45.90;;;;;;4350156;32;20096;-75
2021/08/11 07:42:50;;;;;;;12.52;5.70;;;29.50;47.30;;;;;;4350244;32;20078;-74
2021/08/11 07:45:17;;;;;;;8.35;5.25;;;30.20;42.90;;;;;;4364552;32;20069;-74
2021/08/11 07:47:46;;;;;;;10.95;6.65;;;29.70;42.90;;;;;;4365447;32;20165;-75
2021/08/11 07:50:13;;;;;;;6.93;5.03;;;29.50;45.10;;;;;;4353221;32;20077;-74
2021/08/11 07:52:40;;;;;;;10.30;6.15;;;30.00;43.90;;;;;;4373767;32;20208;-75
2021/08/11 07:55:08;;;;;;;8.25;5.72;;;29.80;44.10;;;;;;4358028;32;20484;-78
2021/08/11 07:57:34;;;;;;;8.82;6.07;;;29.90;44.10;;;;;;4350724;32;20155;-76
2021/08/11 08:00:00;;;;;;;9.48;6.35;;;29.90;44.30;;;;;;4357292;32;20559;-71
2021/08/11 08:02:26;;;;;;;9.65;6.28;;;29.30;44.40;;;;;;4367456;32;20084;-74
2021/08/11 08:04:53;;;;;;;7.82;6.07;;;29.60;45.30;;;;;;4352453;32;20619;-78
2021/08/11 08:07:19;;;;;;;9.20;6.12;;;29.70;44.50;;;;;;4378025;32;20517;-78
2021/08/11 08:09:45;;;;;;;8.98;5.93;;;29.50;44.70;;;;;;4341034;32;20585;-73
2021/08/11 08:12:11;;;;;;;8.43;5.97;;;30.40;44.40;;;;;;4347575;32;20076;-75
2021/08/11 08:14:37;;;;;;;8.40;5.72;;;29.80;43.50;;;;;;4355357;32;20065;-77
2021/08/11 08:17:04;;;;;;;9.45;5.78;;;30.50;42.50;;;;;;4352902;32;20067;-72
2021/08/11 08:19:30;;;;;;;8.50;6.22;;;30.50;41.90;;;;;;4362210;32;20080;-75
2021/08/11 08:21:56;;;;;;;9.98;6.40;;;30.40;41.50;;;;;;4384476;32;20102;-76
2021/08/11 08:24:22;;;;;;;8.98;5.95;;;30.50;41.50;;;;;;4356433;32;20512;-72
2021/08/11 08:26:49;;;;;;;9.68;6.30;;;30.20;42.50;;;;;;4340642;32;20067;-77
2021/08/11 08:29:15;;;;;;;8.68;5.95;;;29.80;42.00;;;;;;4354631;32;20076;-74
2021/08/11 08:31:41;;;;;;;9.93;6.78;;;29.80;42.00;;;;;;4362874;32;20161;-76
2021/08/11 08:34:07;;;;;;;9.18;5.75;;;30.20;41.70;;;;;;4368557;32;20109;-75
2021/08/11 08:36:34;;;;;;;9.50;6.57;;;30.00;41.90;;;;;;4341051;32;20445;-76
2021/08/11 08:39:00;;;;;;;7.15;6.00;;;30.50;41.40;;;;;;4347925;32;20154;-74
2021/08/11 08:41:27;;;;;;;8.40;5.47;;;30.70;40.90;;;;;;4361872;32;20077;-72
2021/08/11 08:43:53;;;;;;;9.00;6.65;;;30.70;40.20;;;;;;4350495;32;20077;-74
2021/08/11 08:46:20;;;;;;;11.27;6.47;;;31.00;40.80;;;;;;4362700;32;20154;-81
2021/08/11 08:48:47;;;;;;;12.37;6.18;;;30.60;40.50;;;;;;4338639;32;20571;-76
2021/08/11 08:51:14;;;;;;;8.25;5.70;;;30.40;40.50;;;;;;4343790;32;20062;-79
2021/08/11 08:53:44;;;;;;;11.45;5.65;;;30.50;40.60;;;;;;4360277;32;20441;-74
2021/08/11 08:56:11;;;;;;;9.43;6.00;;;30.00;41.50;;;;;;4338322;32;20184;-76
2021/08/11 08:58:42;;;;;;;9.60;6.28;;;30.70;41.50;;;;;;4340076;32;20093;-77
2021/08/11 09:01:08;;;;;;;8.88;5.53;;;30.40;39.50;;;;;;4346798;32;20478;-77
2021/08/11 09:03:34;;;;;;;8.43;6.18;;;29.90;40.50;;;;;;4368838;32;20074;-78
2021/08/11 09:06:01;;;;;;;8.38;5.55;;;29.90;42.00;;;;;;4368557;32;20609;-74
2021/08/11 09:08:28;;;;;;;8.40;6.68;;;31.10;39.70;;;;;;4372460;32;20077;-72
2021/08/11 09:10:55;;;;;;;8.43;6.03;;;30.50;40.30;;;;;;4332175;32;20460;-72
2021/08/11 09:13:22;;;;;;;8.93;6.40;;;31.50;38.70;;;;;;4375570;32;20074;-73
2021/08/11 09:16:04;;;;;;;9.75;6.37;;;30.30;40.00;;;;;;4347141;32;20073;-74
2021/08/11 09:18:30;;;;;;;9.20;6.32;;;30.50;40.10;;;;;;4349595;32;20476;-70
2021/08/11 09:20:59;;;;;;;10.43;5.70;;;30.90;39.50;;;;;;4368141;32;20522;-74
2021/08/11 09:23:38;;;;;;;9.52;6.30;;;31.20;37.00;;;;;;4358681;32;20158;-75
2021/08/11 09:26:10;;;;;;;9.70;5.95;;;30.40;40.70;;;;;;4365680;32;20082;-69
2021/08/11 09:28:38;;;;;;;8.38;6.28;;;30.70;39.70;;;;;;4356229;32;20151;-72
2021/08/11 09:31:28;;;;;;;9.30;6.15;;;30.40;38.30;;;;;;4361789;32;20121;-73
2021/08/11 09:34:02;;;;;;;7.90;6.50;;;30.80;39.50;;;;;;4363780;32;20097;-73
2021/08/11 09:36:41;;;;;;;7.40;5.62;;;30.80;37.80;;;;;;4368548;32;20086;-75
2021/08/11 09:39:07;;;;;;;8.48;5.53;;;30.20;39.40;;;;;;4377954;32;20102;-72
2021/08/11 09:41:33;;;;;;;12.98;6.20;;;30.30;39.80;;;;;;4357778;32;20105;-74
2021/08/11 09:44:11;;;;;;;7.30;5.68;;;30.30;39.40;;;;;;4350448;32;20081;-78
2021/08/11 09:46:40;;;;;;;7.87;5.87;;;30.90;38.00;;;;;;4375572;32;20089;-73
2021/08/11 09:49:15;;;;;;;10.88;5.82;;;30.80;38.10;;;;;;4366976;32;20660;-72
2021/08/11 09:52:01;;;;;;;9.70;5.43;;;30.10;39.80;;;;;;4358738;32;20137;-71
2021/08/11 09:54:29;;;;;;;8.13;5.43;;;31.30;37.20;;;;;;4366367;32;20066;-75
2021/08/11 09:56:57;;;;;;;9.48;5.68;;;31.20;36.40;;;;;;4358572;32;20121;-73
2021/08/11 09:59:23;;;;;;;8.05;5.40;;;31.50;35.50;;;;;;4369672;32;20190;-72
2021/08/11 10:01:49;;;;;;;10.45;5.35;;;31.60;36.10;;;;;;4349389;32;20135;-73
2021/08/11 10:04:16;;;;;;;6.28;5.12;;;30.60;36.50;;;;;;4354289;32;20082;-68
2021/08/11 10:06:43;;;;;;;7.97;5.20;;;30.50;37.60;;;;;;4319634;32;20080;-72
2021/08/11 10:09:21;;;;;;;6.55;5.50;;;30.40;37.30;;;;;;4367056;32;20105;-73
2021/08/11 10:11:57;;;;;;;7.30;5.50;;;30.80;37.40;;;;;;4361066;32;20091;-73
2021/08/11 10:14:28;;;;;;;8.90;6.10;;;31.10;37.00;;;;;;4354656;32;20463;-77
2021/08/11 10:16:59;;;;;;;7.05;5.20;;;30.50;37.50;;;;;;4355834;32;20112;-69
2021/08/11 10:19:28;;;;;;;7.87;5.47;;;30.50;36.90;;;;;;4372875;32;20514;-71
2021/08/11 10:22:11;;;;;;;8.20;5.68;;;30.30;38.00;;;;;;4364025;32;20066;-70
2021/08/11 10:24:38;;;;;;;7.40;5.12;;;31.40;37.10;;;;;;4357017;32;20090;-69
2021/08/11 10:27:08;;;;;;;7.57;5.82;;;31.30;35.00;;;;;;4356572;32;20185;-63
2021/08/11 10:29:37;;;;;;;9.55;5.80;;;30.90;35.80;;;;;;4340361;32;20156;-67
2021/08/11 10:32:06;;;;;;;10.70;5.65;;;30.90;37.80;;;;;;4358583;32;20554;-72
2021/08/11 10:34:32;;;;;;;6.47;5.40;;;31.30;35.50;;;;;;4356593;32;20077;-73
2021/08/11 10:36:59;;;;;;;7.05;5.97;;;31.60;34.90;;;;;;4369260;32;20065;-72
2021/08/11 10:39:30;;;;;;;7.68;5.53;;;30.60;36.90;;;;;;4346738;32;20194;-75
2021/08/11 10:42:00;;;;;;;7.97;5.25;;;30.70;37.80;;;;;;4345953;32;20153;-75
2021/08/11 10:44:27;;;;;;;7.90;5.80;;;30.50;37.50;;;;;;4340694;32;20066;-74
2021/08/11 10:46:58;;;;;;;6.80;4.97;;;30.00;38.40;;;;;;4351387;32;20086;-81
2021/08/11 10:49:27;;;;;;;7.47;5.30;;;30.50;37.80;;;;;;4342863;32;20143;-78
2021/08/11 10:52:04;;;;;;;9.20;5.62;;;30.70;37.40;;;;;;4344008;32;20532;-76
2021/08/11 10:54:57;;;;;;;6.97;5.45;;;31.30;36.00;;;;;;4354835;32;20468;-77
2021/08/11 10:57:39;;;;;;;7.43;5.20;;;31.10;37.00;;;;;;4368802;32;20098;-77
2021/08/11 11:00:21;;;;;;;7.53;5.43;;;30.70;36.50;;;;;;4354478;32;20066;-72
2021/08/11 11:02:48;;;;;;;8.85;5.15;;;31.70;35.60;;;;;;4364467;32;20069;-74
2021/08/11 11:05:21;;;;;;;7.60;5.20;;;31.70;33.80;;;;;;4364342;32;20113;-75
2021/08/11 11:08:15;;;;;;;8.07;5.20;;;31.60;34.40;;;;;;4373555;32;20789;-70
2021/08/11 11:10:45;;;;;;;7.20;5.10;;;31.00;36.10;;;;;;4372774;32;20074;-75
2021/08/11 11:13:29;;;;;;;7.05;5.40;;;30.90;35.80;;;;;;4341121;32;20136;-74
2021/08/11 11:16:01;;;;;;;9.45;5.10;;;30.30;36.70;;;;;;4361481;32;20085;-72
2021/08/11 11:18:27;;;;;;;8.18;5.90;;;30.30;36.50;;;;;;4363738;32;20085;-73
2021/08/11 11:20:57;;;;;;;7.20;5.30;;;30.70;36.20;;;;;;4357774;32;20113;-73
2021/08/11 11:23:39;;;;;;;8.13;5.65;;;30.90;37.60;;;;;;4374359;32;20197;-70
2021/08/11 11:26:12;;;;;;;7.62;5.37;;;31.40;34.70;;;;;;4357036;32;20513;-70
2021/08/11 11:29:07;;;;;;;8.05;5.43;;;32.10;34.70;;;;;;4352648;32;20085;-78
2021/08/11 11:31:41;;;;;;;7.87;5.35;;;32.40;32.70;;;;;;4352150;32;20062;-72
2021/08/11 11:34:25;;;;;;;7.00;4.95;;;32.30;32.60;;;;;;4373975;32;20456;-71
2021/08/11 11:36:54;;;;;;;7.00;5.00;;;30.90;35.20;;;;;;4364486;32;20066;-72
2021/08/11 11:39:27;;;;;;;7.35;5.10;;;31.40;35.30;;;;;;4362456;32;20067;-73
2021/08/11 11:42:11;;;;;;;9.20;5.07;;;31.40;33.30;;;;;;4372861;32;20501;-71
2021/08/11 11:44:50;;;;;;;8.27;4.55;;;30.90;35.00;;;;;;4362743;32;20089;-72
2021/08/11 11:47:19;;;;;;;8.02;5.35;;;31.40;34.40;;;;;;4365806;32;20164;-74
2021/08/11 11:49:45;;;;;;;9.55;4.95;;;31.40;34.40;;;;;;4362000;32;20066;-76
2021/08/11 11:52:16;;;;;;;6.78;5.50;;;31.30;34.80;;;;;;4348496;32;20069;-76
2021/08/11 11:54:47;;;;;;;7.20;5.20;;;31.50;34.80;;;;;;4349754;32;20081;-76
2021/08/11 11:57:18;;;;;;;8.32;5.22;;;31.20;34.60;;;;;;4362910;32;20178;-76
2021/08/11 11:59:49;;;;;;;7.97;5.40;;;31.00;34.50;;;;;;4362900;32;20089;-76
2021/08/11 12:02:22;;;;;;;6.32;5.12;;;31.10;34.50;;;;;;4374173;32;20588;-79
2021/08/11 12:05:03;;;;;;;6.68;5.30;;;31.10;34.60;;;;;;4348830;32;20082;-75
2021/08/11 12:07:33;;;;;;;7.10;5.28;;;31.70;33.40;;;;;;4350281;32;20130;-77
2021/08/11 12:10:01;;;;;;;7.45;5.30;;;31.70;33.50;;;;;;4362145;32;20058;-80
2021/08/11 12:12:27;;;;;;;7.12;4.90;;;31.30;33.80;;;;;;4361250;32;20098;-76
2021/08/11 12:15:16;;;;;;;6.62;4.57;;;31.30;33.10;;;;;;4346419;32;20068;-72
2021/08/11 12:17:43;;;;;;;8.27;5.25;;;31.30;33.80;;;;;;4374922;32;20546;-71
2021/08/11 12:20:36;;;;;;;7.43;5.12;;;31.00;34.80;;;;;;4366063;32;20082;-71
2021/08/11 12:23:26;;;;;;;6.97;4.93;;;30.90;33.90;;;;;;4356155;32;20595;-72
2021/08/11 12:25:54;;;;;;;7.90;4.65;;;30.90;35.40;;;;;;4355513;32;20069;-73
2021/08/11 12:28:36;;;;;;;8.50;4.65;;;31.60;33.10;;;;;;4358416;32;20086;-73
2021/08/11 12:31:23;;;;;;;6.93;5.10;;;31.10;34.70;;;;;;4370961;32;20150;-72
2021/08/11 12:33:51;;;;;;;7.60;4.90;;;31.00;34.20;;;;;;4361850;32;20075;-74
2021/08/11 12:36:23;;;;;;;6.32;4.95;;;30.60;35.00;;;;;;4348548;32;20500;-76
2021/08/11 12:39:12;;;;;;;5.95;4.30;;;31.50;34.80;;;;;;4359695;32;20586;-74
2021/08/11 12:41:46;;;;;;;5.93;4.32;;;31.80;32.90;;;;;;4345333;32;20082;-75
2021/08/11 12:44:18;;;;;;;8.70;4.65;;;32.10;32.90;;;;;;4347125;32;20089;-75
2021/08/11 12:46:44;;;;;;;6.00;4.53;;;32.20;32.40;;;;;;4336933;32;20065;-76
2021/08/11 12:49:23;;;;;;;8.48;4.62;;;32.00;32.60;;;;;;4366477;32;20066;-75
2021/08/11 12:52:20;;;;;;;6.40;4.18;;;31.40;33.20;;;;;;4357359;32;20138;-75
2021/08/11 12:55:04;;;;;;;;;;;31.80;32.90;;;;;;4354536;32;20154;-80
2021/08/11 12:57:40;;;;;;;6.43;5.10;;;31.20;33.60;;;;;;4353122;32;20448;-73